sensor_id;sensor_type;location;lat;lon;timestamp;pressure;altitude;pressure_sealevel;temperature;humidity
76216;BME280;65010;50.190;18.930;2023-03-01T00:16:44;99462.75;;;0.32;48.41
76216;BME280;65010;50.190;18.930;2023-03-01T00:23:50;99542.34;;;0.76;48.51
76216;BME280;65010;50.190;18.930;2023-03-01T00:26:57;99496.72;;;0.42;48.60
76216;BME280;65010;50.190;18.930;2023-03-01T00:37:40;99481.84;;;0.45;48.35
76216;BME280;65010;50.190;18.930;2023-03-01T01:00:19;99520.78;;;0.60;49.09
76216;BME280;65010;50.190;18.930;2023-03-01T01:03:26;99474.44;;;0.39;49.62
76216;BME280;65010;50.190;18.930;2023-03-01T01:10:33;99508.34;;;0.66;48.71
76216;BME280;65010;50.190;18.930;2023-03-01T01:13:40;99470.50;;;0.32;48.96
76216;BME280;65010;50.190;18.930;2023-03-01T01:16:49;99471.00;;;0.39;49.11
76216;BME280;65010;50.190;18.930;2023-03-01T01:23:37;99470.00;;;0.41;49.02
76216;BME280;65010;50.190;18.930;2023-03-01T01:30:36;99415.59;;;0.11;48.92
76216;BME280;65010;50.190;18.930;2023-03-01T01:33:45;99496.91;;;0.55;48.62
76216;BME280;65010;50.190;18.930;2023-03-01T01:36:53;99494.78;;;0.45;48.78
76216;BME280;65010;50.190;18.930;2023-03-01T01:40:01;99493.59;;;0.35;49.43
76216;BME280;65010;50.190;18.930;2023-03-01T01:43:18;99491.34;;;0.29;49.38
76216;BME280;65010;50.190;18.930;2023-03-01T01:46:30;99487.09;;;0.28;49.13
76216;BME280;65010;50.190;18.930;2023-03-01T01:49:44;99482.75;;;0.28;49.45
76216;BME280;65010;50.190;18.930;2023-03-01T01:52:54;99473.09;;;0.32;49.27
76216;BME280;65010;50.190;18.930;2023-03-01T01:56:02;99478.28;;;0.32;49.61
76216;BME280;65010;50.190;18.930;2023-03-01T01:59:14;99480.94;;;0.30;49.29
76216;BME280;65010;50.190;18.930;2023-03-01T02:02:21;99478.41;;;0.29;49.37
76216;BME280;65010;50.190;18.930;2023-03-01T02:05:37;99465.88;;;0.21;49.27
76216;BME280;65010;50.190;18.930;2023-03-01T02:09:00;99461.91;;;0.16;49.48
76216;BME280;65010;50.190;18.930;2023-03-01T02:12:11;99452.63;;;0.12;49.70
76216;BME280;65010;50.190;18.930;2023-03-01T02:15:19;99467.66;;;0.21;50.41
76216;BME280;65010;50.190;18.930;2023-03-01T02:18:26;99455.78;;;0.17;50.08
76216;BME280;65010;50.190;18.930;2023-03-01T02:21:45;99466.41;;;0.28;49.72
76216;BME280;65010;50.190;18.930;2023-03-01T02:25:12;99468.25;;;0.26;48.82
76216;BME280;65010;50.190;18.930;2023-03-01T02:28:40;99468.66;;;0.18;49.29
76216;BME280;65010;50.190;18.930;2023-03-01T02:31:52;99462.66;;;0.18;49.64
76216;BME280;65010;50.190;18.930;2023-03-01T02:35:02;99462.47;;;0.21;49.69
76216;BME280;65010;50.190;18.930;2023-03-01T02:38:09;99469.03;;;0.10;49.03
76216;BME280;65010;50.190;18.930;2023-03-01T02:41:20;99457.31;;;-0.13;49.36
76216;BME280;65010;50.190;18.930;2023-03-01T02:44:31;99466.97;;;-0.34;50.21
76216;BME280;65010;50.190;18.930;2023-03-01T02:47:37;99470.50;;;-0.35;51.38
76216;BME280;65010;50.190;18.930;2023-03-01T02:50:55;99473.66;;;-0.30;51.03
76216;BME280;65010;50.190;18.930;2023-03-01T02:54:20;99468.28;;;-0.25;50.61
76216;BME280;65010;50.190;18.930;2023-03-01T02:57:34;99468.78;;;-0.18;50.18
76216;BME280;65010;50.190;18.930;2023-03-01T03:00:46;99474.09;;;-0.21;50.10
76216;BME280;65010;50.190;18.930;2023-03-01T03:03:52;99468.78;;;-0.18;50.26
76216;BME280;65010;50.190;18.930;2023-03-01T03:06:59;99469.56;;;-0.16;50.22
76216;BME280;65010;50.190;18.930;2023-03-01T03:10:08;99464.69;;;-0.22;49.95
76216;BME280;65010;50.190;18.930;2023-03-01T03:13:17;99472.28;;;-0.19;50.50
76216;BME280;65010;50.190;18.930;2023-03-01T03:16:27;99469.56;;;-0.16;50.93
76216;BME280;65010;50.190;18.930;2023-03-01T03:19:35;99459.03;;;-0.13;50.67
76216;BME280;65010;50.190;18.930;2023-03-01T03:22:41;99451.97;;;-0.10;50.42
76216;BME280;65010;50.190;18.930;2023-03-01T03:25:49;99456.31;;;-0.10;50.83
76216;BME280;65010;50.190;18.930;2023-03-01T03:28:56;99457.91;;;-0.07;50.67
76216;BME280;65010;50.190;18.930;2023-03-01T03:32:06;99459.72;;;-0.10;50.01
76216;BME280;65010;50.190;18.930;2023-03-01T03:35:12;99451.47;;;-0.16;49.91
76216;BME280;65010;50.190;18.930;2023-03-01T03:38:20;99452.16;;;-0.30;50.07
76216;BME280;65010;50.190;18.930;2023-03-01T03:41:25;99450.03;;;-0.39;50.86
76216;BME280;65010;50.190;18.930;2023-03-01T03:44:32;99449.59;;;-0.47;51.03
76216;BME280;65010;50.190;18.930;2023-03-01T03:47:42;99439.50;;;-0.52;51.61
76216;BME280;65010;50.190;18.930;2023-03-01T03:50:51;99392.13;;;-0.68;51.58
76216;BME280;65010;50.190;18.930;2023-03-01T03:53:58;99407.13;;;-0.59;51.21
76216;BME280;65010;50.190;18.930;2023-03-01T03:57:05;99424.13;;;-0.38;50.97
76216;BME280;65010;50.190;18.930;2023-03-01T04:00:12;99409.63;;;-0.40;50.50
76216;BME280;65010;50.190;18.930;2023-03-01T04:03:24;99371.00;;;-0.77;50.49
76216;BME280;65010;50.190;18.930;2023-03-01T04:06:34;99412.41;;;-0.61;50.45
76216;BME280;65010;50.190;18.930;2023-03-01T04:09:41;99397.13;;;-0.65;50.42
76216;BME280;65010;50.190;18.930;2023-03-01T04:12:47;99407.44;;;-0.65;50.46
76216;BME280;65010;50.190;18.930;2023-03-01T04:15:54;99403.56;;;-0.74;50.37
76216;BME280;65010;50.190;18.930;2023-03-01T04:19:03;99441.00;;;-0.65;50.85
76216;BME280;65010;50.190;18.930;2023-03-01T04:22:10;99435.19;;;-0.69;51.45
76216;BME280;65010;50.190;18.930;2023-03-01T04:25:20;99410.19;;;-0.86;51.63
76216;BME280;65010;50.190;18.930;2023-03-01T04:28:30;99404.13;;;-0.85;51.44
76216;BME280;65010;50.190;18.930;2023-03-01T04:31:38;99438.13;;;-0.77;51.54
76216;BME280;65010;50.190;18.930;2023-03-01T04:34:47;99450.66;;;-0.69;51.55
76216;BME280;65010;50.190;18.930;2023-03-01T04:37:53;99446.47;;;-0.72;51.71
76216;BME280;65010;50.190;18.930;2023-03-01T04:41:00;99456.72;;;-0.70;51.15
76216;BME280;65010;50.190;18.930;2023-03-01T04:44:06;99448.53;;;-0.78;51.37
76216;BME280;65010;50.190;18.930;2023-03-01T04:47:13;99434.47;;;-0.90;51.78
76216;BME280;65010;50.190;18.930;2023-03-01T04:54:10;99448.13;;;-0.88;52.32
76216;BME280;65010;50.190;18.930;2023-03-01T04:57:17;99405.88;;;-1.22;52.04
76216;BME280;65010;50.190;18.930;2023-03-01T05:00:24;99404.22;;;-1.23;52.33
76216;BME280;65010;50.190;18.930;2023-03-01T05:03:31;99388.97;;;-1.27;51.91
76216;BME280;65010;50.190;18.930;2023-03-01T05:06:37;99378.25;;;-1.37;52.48
76216;BME280;65010;50.190;18.930;2023-03-01T05:09:49;99394.50;;;-1.35;52.45
76216;BME280;65010;50.190;18.930;2023-03-01T05:12:57;99425.28;;;-1.32;53.10
76216;BME280;65010;50.190;18.930;2023-03-01T05:16:06;99422.50;;;-1.27;53.49
76216;BME280;65010;50.190;18.930;2023-03-01T05:19:14;99364.31;;;-1.52;53.34
76216;BME280;65010;50.190;18.930;2023-03-01T05:22:26;99350.94;;;-1.41;53.38
76216;BME280;65010;50.190;18.930;2023-03-01T05:25:38;99423.09;;;-1.03;53.13
76216;BME280;65010;50.190;18.930;2023-03-01T05:28:46;99380.25;;;-1.25;52.16
76216;BME280;65010;50.190;18.930;2023-03-01T05:31:53;99393.31;;;-1.11;52.27
76216;BME280;65010;50.190;18.930;2023-03-01T05:38:24;99382.88;;;-1.26;52.22
76216;BME280;65010;50.190;18.930;2023-03-01T05:41:35;99345.78;;;-1.41;52.30
76216;BME280;65010;50.190;18.930;2023-03-01T05:44:45;99414.66;;;-1.07;52.14
76216;BME280;65010;50.190;18.930;2023-03-01T05:47:53;99370.16;;;-1.29;52.63
76216;BME280;65010;50.190;18.930;2023-03-01T05:51:00;99404.41;;;-0.91;52.31
76216;BME280;65010;50.190;18.930;2023-03-01T05:54:07;99345.03;;;-1.26;52.20
76216;BME280;65010;50.190;18.930;2023-03-01T05:57:16;99427.19;;;-0.82;52.11
76216;BME280;65010;50.190;18.930;2023-03-01T06:00:24;99349.72;;;-1.34;52.48
76216;BME280;65010;50.190;18.930;2023-03-01T06:03:30;99419.34;;;-0.98;52.05
76216;BME280;65010;50.190;18.930;2023-03-01T06:06:39;99435.38;;;-0.91;52.34
76216;BME280;65010;50.190;18.930;2023-03-01T06:09:46;99362.63;;;-1.34;52.70
76216;BME280;65010;50.190;18.930;2023-03-01T06:12:56;99401.22;;;-0.96;52.75
76216;BME280;65010;50.190;18.930;2023-03-01T06:16:05;99434.41;;;-0.71;52.14
76216;BME280;65010;50.190;18.930;2023-03-01T06:19:12;99443.50;;;-0.64;52.35
76216;BME280;65010;50.190;18.930;2023-03-01T06:22:18;99443.06;;;-0.55;52.86
76216;BME280;65010;50.190;18.930;2023-03-01T06:25:26;99440.97;;;-0.13;52.00
76216;BME280;65010;50.190;18.930;2023-03-01T06:28:36;99449.63;;;-0.14;51.92
76216;BME280;65010;50.190;18.930;2023-03-01T06:31:43;99451.03;;;-0.24;52.23
76216;BME280;65010;50.190;18.930;2023-03-01T06:34:50;99451.09;;;-0.26;52.77
76216;BME280;65010;50.190;18.930;2023-03-01T06:37:58;99444.72;;;-0.03;53.08
76216;BME280;65010;50.190;18.930;2023-03-01T06:41:06;99449.53;;;0.70;52.49
76216;BME280;65010;50.190;18.930;2023-03-01T06:44:15;99437.69;;;1.42;50.84
76216;BME280;65010;50.190;18.930;2023-03-01T06:47:21;99441.28;;;2.13;49.47
76216;BME280;65010;50.190;18.930;2023-03-01T06:50:28;99447.69;;;2.78;48.11
76216;BME280;65010;50.190;18.930;2023-03-01T06:53:41;99433.72;;;3.33;45.92
76216;BME280;65010;50.190;18.930;2023-03-01T06:56:48;99399.06;;;3.60;44.91
76216;BME280;65010;50.190;18.930;2023-03-01T06:59:57;99420.88;;;4.21;43.70
76216;BME280;65010;50.190;18.930;2023-03-01T07:03:08;99423.81;;;4.66;42.15
76216;BME280;65010;50.190;18.930;2023-03-01T07:06:14;99365.97;;;4.74;43.91
76216;BME280;65010;50.190;18.930;2023-03-01T07:09:21;99425.44;;;5.51;40.85
76216;BME280;65010;50.190;18.930;2023-03-01T07:12:29;99426.34;;;5.85;40.28
76216;BME280;65010;50.190;18.930;2023-03-01T07:15:42;99425.88;;;6.14;38.73
76216;BME280;65010;50.190;18.930;2023-03-01T07:18:48;99425.56;;;6.41;39.02
76216;BME280;65010;50.190;18.930;2023-03-01T07:21:55;99424.03;;;6.71;38.35
76216;BME280;65010;50.190;18.930;2023-03-01T07:25:01;99428.47;;;7.03;36.41
76216;BME280;65010;50.190;18.930;2023-03-01T07:28:08;99419.00;;;7.23;36.08
76216;BME280;65010;50.190;18.930;2023-03-01T07:31:16;99420.28;;;7.28;35.73
76216;BME280;65010;50.190;18.930;2023-03-01T07:34:23;99409.09;;;7.38;34.83
76216;BME280;65010;50.190;18.930;2023-03-01T07:37:29;99411.50;;;7.50;34.69
76216;BME280;65010;50.190;18.930;2023-03-01T07:40:37;99410.97;;;7.78;34.61
76216;BME280;65010;50.190;18.930;2023-03-01T07:43:43;99398.03;;;8.07;34.23
76216;BME280;65010;50.190;18.930;2023-03-01T07:46:53;99391.28;;;8.45;33.67
76216;BME280;65010;50.190;18.930;2023-03-01T07:50:00;99380.03;;;8.83;33.78
76216;BME280;65010;50.190;18.930;2023-03-01T07:53:08;99380.56;;;9.26;32.79
76216;BME280;65010;50.190;18.930;2023-03-01T07:56:15;99381.59;;;9.62;32.22
76216;BME280;65010;50.190;18.930;2023-03-01T07:59:22;99380.19;;;9.78;31.63
76216;BME280;65010;50.190;18.930;2023-03-01T08:02:34;99378.94;;;9.92;31.90
76216;BME280;65010;50.190;18.930;2023-03-01T08:05:42;99384.31;;;10.27;32.16
76216;BME280;65010;50.190;18.930;2023-03-01T08:08:47;99386.47;;;10.60;31.32
76216;BME280;65010;50.190;18.930;2023-03-01T08:11:56;99391.81;;;10.86;30.63
76216;BME280;65010;50.190;18.930;2023-03-01T08:15:03;99385.34;;;10.80;30.67
76216;BME280;65010;50.190;18.930;2023-03-01T08:18:13;99380.69;;;10.74;29.95
76216;BME280;65010;50.190;18.930;2023-03-01T08:21:18;99389.88;;;11.06;29.75
76216;BME280;65010;50.190;18.930;2023-03-01T08:24:25;99382.78;;;11.42;29.71
76216;BME280;65010;50.190;18.930;2023-03-01T08:27:31;99374.19;;;11.58;28.72
76216;BME280;65010;50.190;18.930;2023-03-01T08:30:38;99373.06;;;11.69;28.90
76216;BME280;65010;50.190;18.930;2023-03-01T08:33:48;99375.91;;;12.10;28.35
76216;BME280;65010;50.190;18.930;2023-03-01T08:36:58;99375.47;;;12.23;27.84
76216;BME280;65010;50.190;18.930;2023-03-01T08:40:06;99377.00;;;12.34;27.84
76216;BME280;65010;50.190;18.930;2023-03-01T08:43:13;99375.81;;;12.28;27.70
76216;BME280;65010;50.190;18.930;2023-03-01T08:46:20;99371.94;;;12.48;27.78
76216;BME280;65010;50.190;18.930;2023-03-01T08:49:29;99364.25;;;12.72;27.06
76216;BME280;65010;50.190;18.930;2023-03-01T08:52:35;99357.38;;;12.95;26.58
76216;BME280;65010;50.190;18.930;2023-03-01T08:55:41;99354.06;;;13.26;25.47
76216;BME280;65010;50.190;18.930;2023-03-01T08:58:48;99351.94;;;13.21;26.14
76216;BME280;65010;50.190;18.930;2023-03-01T09:01:55;99347.63;;;13.28;25.09
76216;BME280;65010;50.190;18.930;2023-03-01T09:05:04;99346.13;;;13.42;25.73
76216;BME280;65010;50.190;18.930;2023-03-01T09:08:11;99347.41;;;13.63;24.98
76216;BME280;65010;50.190;18.930;2023-03-01T09:11:19;99347.00;;;13.91;24.93
76216;BME280;65010;50.190;18.930;2023-03-01T09:14:27;99343.81;;;14.03;24.20
76216;BME280;65010;50.190;18.930;2023-03-01T09:17:33;99342.22;;;14.25;24.80
76216;BME280;65010;50.190;18.930;2023-03-01T09:20:42;99336.94;;;14.57;23.42
76216;BME280;65010;50.190;18.930;2023-03-01T09:23:48;99341.63;;;14.78;23.56
76216;BME280;65010;50.190;18.930;2023-03-01T09:26:56;99344.06;;;15.25;23.61
76216;BME280;65010;50.190;18.930;2023-03-01T09:30:02;99343.63;;;15.52;21.91
76216;BME280;65010;50.190;18.930;2023-03-01T09:33:10;99338.47;;;15.73;22.13
76216;BME280;65010;50.190;18.930;2023-03-01T09:36:21;99342.66;;;15.97;21.40
76216;BME280;65010;50.190;18.930;2023-03-01T09:39:29;99343.81;;;16.24;21.02
76216;BME280;65010;50.190;18.930;2023-03-01T09:42:46;99343.50;;;16.34;20.27
76216;BME280;65010;50.190;18.930;2023-03-01T09:46:03;99350.38;;;16.65;21.21
76216;BME280;65010;50.190;18.930;2023-03-01T09:49:17;99349.28;;;16.96;20.54
76216;BME280;65010;50.190;18.930;2023-03-01T09:52:34;99339.22;;;17.41;20.17
76216;BME280;65010;50.190;18.930;2023-03-01T09:55:49;99341.72;;;17.77;20.07
76216;BME280;65010;50.190;18.930;2023-03-01T09:59:15;99342.53;;;18.26;18.86
76216;BME280;65010;50.190;18.930;2023-03-01T10:02:38;99338.59;;;18.57;18.46
76216;BME280;65010;50.190;18.930;2023-03-01T10:05:57;99331.00;;;18.60;18.18
76216;BME280;65010;50.190;18.930;2023-03-01T10:09:16;99327.94;;;18.57;18.39
76216;BME280;65010;50.190;18.930;2023-03-01T10:12:33;99324.91;;;18.80;18.87
76216;BME280;65010;50.190;18.930;2023-03-01T10:15:45;99319.38;;;19.15;19.05
76216;BME280;65010;50.190;18.930;2023-03-01T10:19:02;99313.41;;;19.59;18.73
76216;BME280;65010;50.190;18.930;2023-03-01T10:22:15;99308.41;;;19.83;17.50
76216;BME280;65010;50.190;18.930;2023-03-01T10:25:45;99315.25;;;20.24;17.59
76216;BME280;65010;50.190;18.930;2023-03-01T10:29:02;99318.75;;;20.11;15.97
76216;BME280;65010;50.190;18.930;2023-03-01T10:32:15;99311.56;;;19.60;16.83
76216;BME280;65010;50.190;18.930;2023-03-01T10:35:29;99306.63;;;19.63;16.31
76216;BME280;65010;50.190;18.930;2023-03-01T10:42:02;99284.31;;;20.03;17.16
76216;BME280;65010;50.190;18.930;2023-03-01T10:45:17;99303.75;;;20.62;16.94
76216;BME280;65010;50.190;18.930;2023-03-01T10:48:34;99294.38;;;20.78;15.67
76216;BME280;65010;50.190;18.930;2023-03-01T10:51:44;99289.38;;;21.13;16.42
76216;BME280;65010;50.190;18.930;2023-03-01T10:54:54;99293.56;;;21.46;15.98
76216;BME280;65010;50.190;18.930;2023-03-01T10:58:17;99288.19;;;21.53;15.37
76216;BME280;65010;50.190;18.930;2023-03-01T11:01:26;99278.78;;;21.43;16.43
76216;BME280;65010;50.190;18.930;2023-03-01T11:04:36;99286.69;;;21.57;15.81
76216;BME280;65010;50.190;18.930;2023-03-01T11:07:47;99281.56;;;21.92;15.53
76216;BME280;65010;50.190;18.930;2023-03-01T11:11:06;99272.88;;;21.78;14.71
76216;BME280;65010;50.190;18.930;2023-03-01T11:14:35;99272.16;;;21.71;14.67
76216;BME280;65010;50.190;18.930;2023-03-01T11:17:44;99265.72;;;22.09;14.41
76216;BME280;65010;50.190;18.930;2023-03-01T11:21:02;99253.28;;;21.96;15.51
76216;BME280;65010;50.190;18.930;2023-03-01T11:24:14;99254.44;;;21.70;15.40
76216;BME280;65010;50.190;18.930;2023-03-01T11:27:25;99251.03;;;21.81;15.58
76216;BME280;65010;50.190;18.930;2023-03-01T11:30:44;99247.16;;;21.59;14.56
76216;BME280;65010;50.190;18.930;2023-03-01T11:34:14;99251.19;;;21.87;15.21
76216;BME280;65010;50.190;18.930;2023-03-01T11:37:35;99254.00;;;22.22;14.51
76216;BME280;65010;50.190;18.930;2023-03-01T11:40:48;99259.09;;;22.42;15.15
76216;BME280;65010;50.190;18.930;2023-03-01T11:44:05;99256.06;;;22.50;15.14
76216;BME280;65010;50.190;18.930;2023-03-01T11:47:37;99247.50;;;22.72;15.06
76216;BME280;65010;50.190;18.930;2023-03-01T11:51:05;99246.09;;;22.93;14.69
76216;BME280;65010;50.190;18.930;2023-03-01T11:54:33;99246.69;;;22.95;14.50
76216;BME280;65010;50.190;18.930;2023-03-01T11:58:13;99243.41;;;22.57;14.92
76216;BME280;65010;50.190;18.930;2023-03-01T12:01:44;99230.34;;;22.49;14.88
76216;BME280;65010;50.190;18.930;2023-03-01T12:05:41;99234.22;;;22.65;14.47
76216;BME280;65010;50.190;18.930;2023-03-01T12:09:07;99230.16;;;22.32;14.62
76216;BME280;65010;50.190;18.930;2023-03-01T12:12:42;99228.81;;;22.11;14.98
76216;BME280;65010;50.190;18.930;2023-03-01T12:16:18;99218.00;;;22.18;15.09
76216;BME280;65010;50.190;18.930;2023-03-01T12:20:08;99219.28;;;22.15;15.29
76216;BME280;65010;50.190;18.930;2023-03-01T12:23:59;99219.69;;;22.00;15.41
76216;BME280;65010;50.190;18.930;2023-03-01T12:27:43;99202.38;;;22.03;14.53
76216;BME280;65010;50.190;18.930;2023-03-01T12:31:30;99207.19;;;21.46;15.48
76216;BME280;65010;50.190;18.930;2023-03-01T12:35:16;99198.63;;;21.55;14.56
76216;BME280;65010;50.190;18.930;2023-03-01T12:38:49;99198.63;;;21.55;15.51
76216;BME280;65010;50.190;18.930;2023-03-01T12:42:15;99189.00;;;21.73;15.89
76216;BME280;65010;50.190;18.930;2023-03-01T12:45:50;99193.66;;;22.08;14.74
76216;BME280;65010;50.190;18.930;2023-03-01T12:49:16;99189.63;;;22.17;14.84
76216;BME280;65010;50.190;18.930;2023-03-01T12:52:35;99185.91;;;21.88;14.98
76216;BME280;65010;50.190;18.930;2023-03-01T12:55:52;99178.28;;;21.73;15.31
76216;BME280;65010;50.190;18.930;2023-03-01T12:59:12;99173.28;;;21.76;14.77
76216;BME280;65010;50.190;18.930;2023-03-01T13:02:30;99165.16;;;21.53;14.97
76216;BME280;65010;50.190;18.930;2023-03-01T13:06:00;99169.34;;;20.87;15.48
76216;BME280;65010;50.190;18.930;2023-03-01T13:09:22;99178.38;;;20.10;16.00
76216;BME280;65010;50.190;18.930;2023-03-01T13:13:02;99172.78;;;19.35;17.85
76216;BME280;65010;50.190;18.930;2023-03-01T13:19:57;99166.34;;;18.31;17.82
76216;BME280;65010;50.190;18.930;2023-03-01T13:23:09;99171.91;;;17.61;18.19
76216;BME280;65010;50.190;18.930;2023-03-01T13:26:19;99173.47;;;17.07;18.38
76216;BME280;65010;50.190;18.930;2023-03-01T13:29:44;99159.97;;;16.45;18.40
76216;BME280;65010;50.190;18.930;2023-03-01T13:32:51;99170.56;;;16.02;18.91
76216;BME280;65010;50.190;18.930;2023-03-01T13:35:59;99167.03;;;15.74;18.98
76216;BME280;65010;50.190;18.930;2023-03-01T13:39:27;99160.38;;;15.48;19.58
76216;BME280;65010;50.190;18.930;2023-03-01T13:42:41;99160.31;;;15.26;19.13
76216;BME280;65010;50.190;18.930;2023-03-01T13:46:15;99158.09;;;15.45;20.12
76216;BME280;65010;50.190;18.930;2023-03-01T13:49:28;99145.97;;;15.87;18.33
76216;BME280;65010;50.190;18.930;2023-03-01T13:52:55;99146.56;;;16.32;18.39
76216;BME280;65010;50.190;18.930;2023-03-01T13:56:09;99147.63;;;16.88;18.49
76216;BME280;65010;50.190;18.930;2023-03-01T13:59:20;99150.56;;;17.48;18.30
76216;BME280;65010;50.190;18.930;2023-03-01T14:02:32;99145.00;;;17.97;16.97
76216;BME280;65010;50.190;18.930;2023-03-01T14:05:40;99134.59;;;18.09;17.52
76216;BME280;65010;50.190;18.930;2023-03-01T14:08:52;99135.63;;;18.41;16.93
76216;BME280;65010;50.190;18.930;2023-03-01T14:12:24;99138.91;;;18.50;16.38
76216;BME280;65010;50.190;18.930;2023-03-01T14:15:53;99128.47;;;18.69;16.55
76216;BME280;65010;50.190;18.930;2023-03-01T14:19:17;99115.97;;;18.36;16.61
76216;BME280;65010;50.190;18.930;2023-03-01T14:22:40;99118.03;;;18.00;17.14
76216;BME280;65010;50.190;18.930;2023-03-01T14:25:50;99125.53;;;17.70;16.71
76216;BME280;65010;50.190;18.930;2023-03-01T14:28:58;99117.84;;;17.47;16.95
76216;BME280;65010;50.190;18.930;2023-03-01T14:32:15;99124.13;;;17.26;17.17
76216;BME280;65010;50.190;18.930;2023-03-01T14:35:30;99111.47;;;16.86;17.23
76216;BME280;65010;50.190;18.930;2023-03-01T14:38:40;99112.59;;;16.71;18.37
76216;BME280;65010;50.190;18.930;2023-03-01T14:41:48;99117.91;;;16.49;19.09
76216;BME280;65010;50.190;18.930;2023-03-01T14:44:57;99104.94;;;16.33;16.97
76216;BME280;65010;50.190;18.930;2023-03-01T14:48:07;99101.38;;;16.19;17.60
76216;BME280;65010;50.190;18.930;2023-03-01T14:51:17;99100.69;;;16.10;18.69
76216;BME280;65010;50.190;18.930;2023-03-01T14:54:26;99106.88;;;15.96;17.74
76216;BME280;65010;50.190;18.930;2023-03-01T14:57:33;99111.75;;;15.92;18.51
76216;BME280;65010;50.190;18.930;2023-03-01T15:00:50;99114.34;;;15.85;19.43
76216;BME280;65010;50.190;18.930;2023-03-01T15:03:59;99114.06;;;15.80;19.42
76216;BME280;65010;50.190;18.930;2023-03-01T15:07:13;99104.13;;;15.67;19.26
76216;BME280;65010;50.190;18.930;2023-03-01T15:10:22;99110.16;;;15.40;19.63
76216;BME280;65010;50.190;18.930;2023-03-01T15:13:32;99111.34;;;15.22;19.66
76216;BME280;65010;50.190;18.930;2023-03-01T15:16:39;99113.16;;;15.00;20.39
76216;BME280;65010;50.190;18.930;2023-03-01T15:19:47;99114.13;;;14.99;20.73
76216;BME280;65010;50.190;18.930;2023-03-01T15:22:57;99106.16;;;14.70;20.30
76216;BME280;65010;50.190;18.930;2023-03-01T15:26:16;99107.44;;;14.59;20.84
76216;BME280;65010;50.190;18.930;2023-03-01T15:29:30;99105.03;;;14.49;20.92
76216;BME280;65010;50.190;18.930;2023-03-01T15:32:43;99101.28;;;14.28;20.29
76216;BME280;65010;50.190;18.930;2023-03-01T15:35:51;99101.19;;;13.99;20.90
76216;BME280;65010;50.190;18.930;2023-03-01T15:39:02;99102.25;;;13.66;20.82
76216;BME280;65010;50.190;18.930;2023-03-01T15:42:10;99095.00;;;13.29;21.60
76216;BME280;65010;50.190;18.930;2023-03-01T15:45:23;99101.09;;;12.90;21.49
76216;BME280;65010;50.190;18.930;2023-03-01T15:48:32;99105.78;;;12.72;22.54
76216;BME280;65010;50.190;18.930;2023-03-01T15:51:39;99111.09;;;12.55;22.51
76216;BME280;65010;50.190;18.930;2023-03-01T15:54:47;99106.31;;;12.26;23.26
76216;BME280;65010;50.190;18.930;2023-03-01T15:57:59;99105.66;;;12.16;23.71
76216;BME280;65010;50.190;18.930;2023-03-01T16:01:11;99096.94;;;11.91;23.99
76216;BME280;65010;50.190;18.930;2023-03-01T16:04:19;99109.91;;;11.76;24.99
76216;BME280;65010;50.190;18.930;2023-03-01T16:07:25;99106.22;;;11.44;25.00
76216;BME280;65010;50.190;18.930;2023-03-01T16:10:37;99114.47;;;11.06;25.20
76216;BME280;65010;50.190;18.930;2023-03-01T16:13:46;99123.97;;;10.73;25.91
76216;BME280;65010;50.190;18.930;2023-03-01T16:16:53;99121.97;;;10.41;26.26
76216;BME280;65010;50.190;18.930;2023-03-01T16:19:59;99115.50;;;10.09;26.50
76216;BME280;65010;50.190;18.930;2023-03-01T16:23:11;99114.44;;;9.66;27.08
76216;BME280;65010;50.190;18.930;2023-03-01T16:26:20;99123.06;;;9.30;27.92
76216;BME280;65010;50.190;18.930;2023-03-01T16:29:26;99120.97;;;9.06;28.12
76216;BME280;65010;50.190;18.930;2023-03-01T16:32:32;99123.25;;;8.92;28.67
76216;BME280;65010;50.190;18.930;2023-03-01T16:35:40;99124.78;;;8.84;28.39
76216;BME280;65010;50.190;18.930;2023-03-01T16:38:46;99129.28;;;8.55;28.50
76216;BME280;65010;50.190;18.930;2023-03-01T16:41:56;99132.78;;;8.16;29.60
76216;BME280;65010;50.190;18.930;2023-03-01T16:45:06;99128.63;;;8.04;29.91
76216;BME280;65010;50.190;18.930;2023-03-01T16:48:26;99133.88;;;7.94;30.73
76216;BME280;65010;50.190;18.930;2023-03-01T16:51:32;99135.50;;;7.95;30.12
76216;BME280;65010;50.190;18.930;2023-03-01T16:54:39;99143.50;;;7.94;29.93
76216;BME280;65010;50.190;18.930;2023-03-01T16:57:47;99139.38;;;7.91;30.61
76216;BME280;65010;50.190;18.930;2023-03-01T17:00:55;99141.97;;;7.81;30.14
76216;BME280;65010;50.190;18.930;2023-03-01T17:04:05;99139.63;;;7.68;30.41
76216;BME280;65010;50.190;18.930;2023-03-01T17:07:11;99151.81;;;7.39;31.36
76216;BME280;65010;50.190;18.930;2023-03-01T17:10:17;99158.47;;;7.12;31.14
76216;BME280;65010;50.190;18.930;2023-03-01T17:13:27;99153.91;;;7.04;31.52
76216;BME280;65010;50.190;18.930;2023-03-01T17:16:33;99149.06;;;7.00;32.06
76216;BME280;65010;50.190;18.930;2023-03-01T17:19:40;99156.97;;;7.09;31.53
76216;BME280;65010;50.190;18.930;2023-03-01T17:22:46;99155.41;;;7.07;31.75
76216;BME280;65010;50.190;18.930;2023-03-01T17:25:55;99156.34;;;6.96;31.91
76216;BME280;65010;50.190;18.930;2023-03-01T17:29:04;99155.28;;;6.78;32.32
76216;BME280;65010;50.190;18.930;2023-03-01T17:32:12;99157.41;;;6.63;32.34
76216;BME280;65010;50.190;18.930;2023-03-01T17:35:18;99156.84;;;6.38;32.24
76216;BME280;65010;50.190;18.930;2023-03-01T17:38:25;99151.72;;;6.04;33.18
76216;BME280;65010;50.190;18.930;2023-03-01T17:45:17;99123.16;;;5.70;34.52
76216;BME280;65010;50.190;18.930;2023-03-01T17:48:23;99149.00;;;5.74;34.32
76216;BME280;65010;50.190;18.930;2023-03-01T17:51:31;99156.66;;;5.86;34.81
76216;BME280;65010;50.190;18.930;2023-03-01T17:54:40;99147.00;;;5.66;35.00
76216;BME280;65010;50.190;18.930;2023-03-01T17:57:46;99161.22;;;5.73;35.04
76216;BME280;65010;50.190;18.930;2023-03-01T18:01:06;99162.06;;;5.62;34.72
76216;BME280;65010;50.190;18.930;2023-03-01T18:04:13;99159.94;;;5.56;35.25